Kellerton, IA (50133)

3:20 PM CST on February 13, 2016 (GMT -0600)
IEM | | Change Station
CLOSE
Current Station
Personal Weather Station
Location: Lamoni, IA
Elevation: 1180 ft
Nearby Weather Stations

Elev 1180 ft 40.63 °N, 93.94 °W | Updated 21 minutes ago

Overcast
Overcast
18 °F
Feels Like 18 °F
N
0
Wind Variable Wind from SE
Gusts 0.0 mph

Today
High -- | Low -- °F
--% Chance of Precip.
Yesterday
High -- | Low -- °F
Precip. -- in
Pressure 30.51 in
Visibility 10.0 miles
Clouds Overcast 5500 ft
Windchill 18 °F
Dew Point 7 °F
Humidity 62%
Rainfall in
Snow Depth Not available.
7:13 AM 5:48 PM
Waxing Crescent, 34% visible
METAR KLWD 132053Z AUTO 11009KT 10SM OVC055 M09/M18 A3044 RMK AO2 SLP331 T10891178 58038
Pressure 30.51 in
Visibility 10.0 miles
Clouds Overcast 5500 ft
Windchill 18 °F
Dew Point 7 °F
Humidity 62%
Rainfall in
Snow Depth Not available.
7:13 AM 5:48 PM
Waxing Crescent, 34% visible
METAR KLWD 132053Z AUTO 11009KT 10SM OVC055 M09/M18 A3044 RMK AO2 SLP331 T10891178 58038

10-Day Weather Forecast

Almanac

Astronomy

Feb. 13, 2016 Rise Set
Actual Time
Civil Twilight
Nautical Twilight
Astronomical Twilight
Moon
Length of Visible Light
Length of Day
Tomorrow will be .
, % of the Moon is Illuminated

Today's Extremes

State Highs State Lows

Community

WunderPhotos

Upload Photos

1,892,670 photos uploaded!

WunderBlog® & News

Nearby

Air Quality

  Air Quality AQ Index Pollutant
Not available.

Snow Depth

Station Depth Elevation

Earthquake Activity

City Distance Mag. Time & Date
Minimum magnitude displayed is 2.5.

Coastal Water Temperatures

Place Temperature

Stations

Nearby Weather Stations

Station Location Temp. Windchill Dew Point Humidity Wind Precip. Elev Updated Type
                   

Watches & Warnings

There are currently no watches in effect.